sensor_id;sensor_type;location;lat;lon;timestamp;temperature;humidity
27848;DHT22;15212;48.830;8.730;2023-03-31T00:01:10;9.00;99.90
27848;DHT22;15212;48.830;8.730;2023-03-31T00:03:39;9.00;99.90
27848;DHT22;15212;48.830;8.730;2023-03-31T00:06:11;9.00;99.90
27848;DHT22;15212;48.830;8.730;2023-03-31T00:08:41;9.00;99.90
27848;DHT22;15212;48.830;8.730;2023-03-31T00:11:10;9.00;99.90
27848;DHT22;15212;48.830;8.730;2023-03-31T00:13:38;9.00;99.90
27848;DHT22;15212;48.830;8.730;2023-03-31T00:16:08;9.10;99.90
27848;DHT22;15212;48.830;8.730;2023-03-31T00:18:37;9.10;99.90
27848;DHT22;15212;48.830;8.730;2023-03-31T00:21:12;9.10;99.90
27848;DHT22;15212;48.830;8.730;2023-03-31T00:23:43;9.10;99.90
27848;DHT22;15212;48.830;8.730;2023-03-31T00:26:12;9.20;99.90
27848;DHT22;15212;48.830;8.730;2023-03-31T00:28:40;9.20;99.90
27848;DHT22;15212;48.830;8.730;2023-03-31T00:31:09;9.20;99.90
27848;DHT22;15212;48.830;8.730;2023-03-31T00:33:37;9.20;99.90
27848;DHT22;15212;48.830;8.730;2023-03-31T00:36:06;9.20;99.90
27848;DHT22;15212;48.830;8.730;2023-03-31T00:38:35;9.20;99.90
27848;DHT22;15212;48.830;8.730;2023-03-31T00:41:04;9.20;99.90
27848;DHT22;15212;48.830;8.730;2023-03-31T00:43:36;9.20;99.90
27848;DHT22;15212;48.830;8.730;2023-03-31T00:46:19;9.30;99.90
27848;DHT22;15212;48.830;8.730;2023-03-31T00:48:56;9.30;99.90
27848;DHT22;15212;48.830;8.730;2023-03-31T00:51:28;9.20;99.90
27848;DHT22;15212;48.830;8.730;2023-03-31T00:54:00;9.30;99.90
27848;DHT22;15212;48.830;8.730;2023-03-31T00:56:33;9.30;99.90
27848;DHT22;15212;48.830;8.730;2023-03-31T00:59:05;9.30;99.90
27848;DHT22;15212;48.830;8.730;2023-03-31T01:01:36;9.30;99.90
27848;DHT22;15212;48.830;8.730;2023-03-31T01:04:08;9.40;99.90
27848;DHT22;15212;48.830;8.730;2023-03-31T01:06:43;9.40;99.90
27848;DHT22;15212;48.830;8.730;2023-03-31T01:09:13;9.40;99.90
27848;DHT22;15212;48.830;8.730;2023-03-31T01:11:44;9.40;99.90
27848;DHT22;15212;48.830;8.730;2023-03-31T01:14:13;9.50;99.90
27848;DHT22;15212;48.830;8.730;2023-03-31T01:16:42;9.50;99.90
27848;DHT22;15212;48.830;8.730;2023-03-31T01:19:18;9.50;99.90
27848;DHT22;15212;48.830;8.730;2023-03-31T01:22:05;9.50;99.90
27848;DHT22;15212;48.830;8.730;2023-03-31T01:36:45;9.60;99.90
27848;DHT22;15212;48.830;8.730;2023-03-31T01:42:49;9.80;99.90
27848;DHT22;15212;48.830;8.730;2023-03-31T01:48:18;9.70;99.90
27848;DHT22;15212;48.830;8.730;2023-03-31T01:50:58;9.70;99.90
27848;DHT22;15212;48.830;8.730;2023-03-31T01:53:42;9.60;99.90
27848;DHT22;15212;48.830;8.730;2023-03-31T01:56:21;9.50;99.90
27848;DHT22;15212;48.830;8.730;2023-03-31T01:59:13;9.50;99.90
27848;DHT22;15212;48.830;8.730;2023-03-31T02:02:05;9.40;99.90
27848;DHT22;15212;48.830;8.730;2023-03-31T02:04:45;9.40;99.90
27848;DHT22;15212;48.830;8.730;2023-03-31T02:07:19;9.40;99.90
27848;DHT22;15212;48.830;8.730;2023-03-31T02:09:57;9.40;99.90
27848;DHT22;15212;48.830;8.730;2023-03-31T02:12:29;9.40;99.90
27848;DHT22;15212;48.830;8.730;2023-03-31T02:15:02;9.30;99.90
27848;DHT22;15212;48.830;8.730;2023-03-31T02:17:32;9.30;99.90
27848;DHT22;15212;48.830;8.730;2023-03-31T02:20:03;9.30;99.90
27848;DHT22;15212;48.830;8.730;2023-03-31T02:22:37;9.20;99.90
27848;DHT22;15212;48.830;8.730;2023-03-31T02:25:09;9.20;99.90
27848;DHT22;15212;48.830;8.730;2023-03-31T02:27:41;9.20;99.90
27848;DHT22;15212;48.830;8.730;2023-03-31T02:30:11;9.20;99.90
27848;DHT22;15212;48.830;8.730;2023-03-31T02:32:42;9.10;99.90
27848;DHT22;15212;48.830;8.730;2023-03-31T02:35:17;9.10;99.90
27848;DHT22;15212;48.830;8.730;2023-03-31T02:37:47;9.10;99.90
27848;DHT22;15212;48.830;8.730;2023-03-31T02:40:19;9.10;99.90
27848;DHT22;15212;48.830;8.730;2023-03-31T02:42:48;9.10;99.90
27848;DHT22;15212;48.830;8.730;2023-03-31T02:45:39;9.10;99.90
27848;DHT22;15212;48.830;8.730;2023-03-31T02:48:21;9.10;99.90
27848;DHT22;15212;48.830;8.730;2023-03-31T02:50:57;9.10;99.90
27848;DHT22;15212;48.830;8.730;2023-03-31T02:54:07;9.10;99.90
27848;DHT22;15212;48.830;8.730;2023-03-31T02:56:58;9.10;99.90
27848;DHT22;15212;48.830;8.730;2023-03-31T03:05:17;9.00;99.90
27848;DHT22;15212;48.830;8.730;2023-03-31T03:07:59;9.00;99.90
27848;DHT22;15212;48.830;8.730;2023-03-31T03:11:04;8.90;99.90
27848;DHT22;15212;48.830;8.730;2023-03-31T03:16:42;8.70;99.90
27848;DHT22;15212;48.830;8.730;2023-03-31T03:19:17;8.60;99.90
27848;DHT22;15212;48.830;8.730;2023-03-31T03:21:47;8.60;99.90
27848;DHT22;15212;48.830;8.730;2023-03-31T03:24:17;8.50;99.90
27848;DHT22;15212;48.830;8.730;2023-03-31T03:26:47;8.40;99.90
27848;DHT22;15212;48.830;8.730;2023-03-31T03:29:15;8.40;99.90
27848;DHT22;15212;48.830;8.730;2023-03-31T03:31:44;8.30;99.90
27848;DHT22;15212;48.830;8.730;2023-03-31T03:34:12;8.20;99.90
27848;DHT22;15212;48.830;8.730;2023-03-31T03:36:41;8.10;99.90
27848;DHT22;15212;48.830;8.730;2023-03-31T03:39:10;8.00;99.90
27848;DHT22;15212;48.830;8.730;2023-03-31T03:41:38;8.00;99.90
27848;DHT22;15212;48.830;8.730;2023-03-31T03:44:06;8.00;99.90
27848;DHT22;15212;48.830;8.730;2023-03-31T03:46:35;8.00;99.90
27848;DHT22;15212;48.830;8.730;2023-03-31T03:49:03;7.90;99.90
27848;DHT22;15212;48.830;8.730;2023-03-31T03:51:32;7.90;99.90
27848;DHT22;15212;48.830;8.730;2023-03-31T03:54:00;7.90;99.90
27848;DHT22;15212;48.830;8.730;2023-03-31T03:56:28;7.90;99.90
27848;DHT22;15212;48.830;8.730;2023-03-31T03:58:57;7.80;99.90
27848;DHT22;15212;48.830;8.730;2023-03-31T04:01:25;7.80;99.90
27848;DHT22;15212;48.830;8.730;2023-03-31T04:03:53;7.80;99.90
27848;DHT22;15212;48.830;8.730;2023-03-31T04:06:22;7.80;99.90
27848;DHT22;15212;48.830;8.730;2023-03-31T04:08:50;7.70;99.90
27848;DHT22;15212;48.830;8.730;2023-03-31T04:11:19;7.80;99.90
27848;DHT22;15212;48.830;8.730;2023-03-31T04:13:48;7.80;99.90
27848;DHT22;15212;48.830;8.730;2023-03-31T04:16:16;7.80;99.90
27848;DHT22;15212;48.830;8.730;2023-03-31T04:18:44;7.90;99.90
27848;DHT22;15212;48.830;8.730;2023-03-31T04:21:14;7.80;99.90
27848;DHT22;15212;48.830;8.730;2023-03-31T04:23:45;7.90;99.90
27848;DHT22;15212;48.830;8.730;2023-03-31T04:26:15;7.90;99.90
27848;DHT22;15212;48.830;8.730;2023-03-31T04:28:46;8.00;99.90
27848;DHT22;15212;48.830;8.730;2023-03-31T04:31:16;8.00;99.90
27848;DHT22;15212;48.830;8.730;2023-03-31T04:33:53;8.10;99.90
27848;DHT22;15212;48.830;8.730;2023-03-31T04:36:23;8.10;99.90
27848;DHT22;15212;48.830;8.730;2023-03-31T04:38:51;8.20;99.90
27848;DHT22;15212;48.830;8.730;2023-03-31T04:41:21;8.20;99.90
27848;DHT22;15212;48.830;8.730;2023-03-31T04:43:50;8.20;99.90
27848;DHT22;15212;48.830;8.730;2023-03-31T04:46:18;8.20;99.90
27848;DHT22;15212;48.830;8.730;2023-03-31T04:48:47;8.20;99.90
27848;DHT22;15212;48.830;8.730;2023-03-31T04:51:15;8.20;99.90
27848;DHT22;15212;48.830;8.730;2023-03-31T04:53:46;8.20;99.90
27848;DHT22;15212;48.830;8.730;2023-03-31T04:56:14;8.20;99.90
27848;DHT22;15212;48.830;8.730;2023-03-31T04:58:42;8.20;99.90
27848;DHT22;15212;48.830;8.730;2023-03-31T05:01:11;8.30;99.90
27848;DHT22;15212;48.830;8.730;2023-03-31T05:03:41;8.30;99.90
27848;DHT22;15212;48.830;8.730;2023-03-31T05:06:10;8.30;99.90
27848;DHT22;15212;48.830;8.730;2023-03-31T05:08:38;8.30;99.90
27848;DHT22;15212;48.830;8.730;2023-03-31T05:11:07;8.30;99.90
27848;DHT22;15212;48.830;8.730;2023-03-31T05:13:35;8.30;99.90
27848;DHT22;15212;48.830;8.730;2023-03-31T05:16:08;8.30;99.90
27848;DHT22;15212;48.830;8.730;2023-03-31T05:18:41;8.30;99.90
27848;DHT22;15212;48.830;8.730;2023-03-31T05:21:13;8.30;99.90
27848;DHT22;15212;48.830;8.730;2023-03-31T05:23:44;8.30;99.90
27848;DHT22;15212;48.830;8.730;2023-03-31T05:26:13;8.30;99.90
27848;DHT22;15212;48.830;8.730;2023-03-31T05:28:41;8.40;99.90
27848;DHT22;15212;48.830;8.730;2023-03-31T05:31:10;8.40;99.90
27848;DHT22;15212;48.830;8.730;2023-03-31T05:33:40;8.40;99.90
27848;DHT22;15212;48.830;8.730;2023-03-31T05:36:10;8.40;99.90
27848;DHT22;15212;48.830;8.730;2023-03-31T05:38:40;8.40;99.90
27848;DHT22;15212;48.830;8.730;2023-03-31T05:41:09;8.40;99.90
27848;DHT22;15212;48.830;8.730;2023-03-31T05:43:38;8.40;99.90
27848;DHT22;15212;48.830;8.730;2023-03-31T05:46:06;8.40;99.90
27848;DHT22;15212;48.830;8.730;2023-03-31T05:48:35;8.40;99.90
27848;DHT22;15212;48.830;8.730;2023-03-31T05:51:03;8.40;99.90
27848;DHT22;15212;48.830;8.730;2023-03-31T05:53:32;8.40;99.90
27848;DHT22;15212;48.830;8.730;2023-03-31T05:56:02;8.40;99.90
27848;DHT22;15212;48.830;8.730;2023-03-31T05:58:34;8.40;99.90
27848;DHT22;15212;48.830;8.730;2023-03-31T06:01:11;8.40;99.90
27848;DHT22;15212;48.830;8.730;2023-03-31T06:03:42;8.40;99.90
27848;DHT22;15212;48.830;8.730;2023-03-31T06:06:11;8.40;99.90
27848;DHT22;15212;48.830;8.730;2023-03-31T06:08:44;8.40;99.90
27848;DHT22;15212;48.830;8.730;2023-03-31T06:11:16;8.50;99.90
27848;DHT22;15212;48.830;8.730;2023-03-31T06:13:46;8.50;99.90
27848;DHT22;15212;48.830;8.730;2023-03-31T06:16:16;8.60;99.90
27848;DHT22;15212;48.830;8.730;2023-03-31T06:18:45;8.60;99.90
27848;DHT22;15212;48.830;8.730;2023-03-31T06:21:15;8.60;99.90
27848;DHT22;15212;48.830;8.730;2023-03-31T06:23:44;8.60;99.90
27848;DHT22;15212;48.830;8.730;2023-03-31T06:26:16;8.50;99.90
27848;DHT22;15212;48.830;8.730;2023-03-31T06:28:46;8.50;99.90
27848;DHT22;15212;48.830;8.730;2023-03-31T06:31:17;8.50;99.90
27848;DHT22;15212;48.830;8.730;2023-03-31T06:33:47;8.40;99.90
27848;DHT22;15212;48.830;8.730;2023-03-31T06:36:18;8.40;99.90
27848;DHT22;15212;48.830;8.730;2023-03-31T06:38:48;8.40;99.90
27848;DHT22;15212;48.830;8.730;2023-03-31T06:41:18;8.40;99.90
27848;DHT22;15212;48.830;8.730;2023-03-31T06:43:47;8.30;99.90
27848;DHT22;15212;48.830;8.730;2023-03-31T06:46:16;8.30;99.90
27848;DHT22;15212;48.830;8.730;2023-03-31T06:48:44;8.30;99.90
27848;DHT22;15212;48.830;8.730;2023-03-31T06:51:13;8.30;99.90
27848;DHT22;15212;48.830;8.730;2023-03-31T06:53:41;8.40;99.90
27848;DHT22;15212;48.830;8.730;2023-03-31T06:56:10;8.40;99.90
27848;DHT22;15212;48.830;8.730;2023-03-31T06:58:38;8.40;99.90
27848;DHT22;15212;48.830;8.730;2023-03-31T07:01:06;8.40;99.90
27848;DHT22;15212;48.830;8.730;2023-03-31T07:03:36;8.50;99.90
27848;DHT22;15212;48.830;8.730;2023-03-31T07:06:05;8.50;99.90
27848;DHT22;15212;48.830;8.730;2023-03-31T07:08:33;8.60;99.90
27848;DHT22;15212;48.830;8.730;2023-03-31T07:11:02;8.60;99.90
27848;DHT22;15212;48.830;8.730;2023-03-31T07:13:30;8.70;99.90
27848;DHT22;15212;48.830;8.730;2023-03-31T07:15:58;8.70;99.90
27848;DHT22;15212;48.830;8.730;2023-03-31T07:18:27;8.80;99.90
27848;DHT22;15212;48.830;8.730;2023-03-31T07:20:57;8.80;99.90
27848;DHT22;15212;48.830;8.730;2023-03-31T07:23:25;8.90;99.90
27848;DHT22;15212;48.830;8.730;2023-03-31T07:25:54;9.00;99.90
27848;DHT22;15212;48.830;8.730;2023-03-31T07:28:24;9.10;99.90
27848;DHT22;15212;48.830;8.730;2023-03-31T07:30:52;9.40;99.90
27848;DHT22;15212;48.830;8.730;2023-03-31T07:33:21;9.60;99.90
27848;DHT22;15212;48.830;8.730;2023-03-31T07:35:49;9.90;99.90
27848;DHT22;15212;48.830;8.730;2023-03-31T07:38:17;10.10;99.90
27848;DHT22;15212;48.830;8.730;2023-03-31T07:40:46;10.30;99.90
27848;DHT22;15212;48.830;8.730;2023-03-31T07:43:14;10.50;99.90
27848;DHT22;15212;48.830;8.730;2023-03-31T07:45:43;10.60;99.90
27848;DHT22;15212;48.830;8.730;2023-03-31T07:48:11;10.80;99.90
27848;DHT22;15212;48.830;8.730;2023-03-31T07:50:39;10.80;99.90
27848;DHT22;15212;48.830;8.730;2023-03-31T07:53:08;11.00;99.90
27848;DHT22;15212;48.830;8.730;2023-03-31T07:55:36;11.10;99.90
27848;DHT22;15212;48.830;8.730;2023-03-31T07:58:05;11.10;99.90
27848;DHT22;15212;48.830;8.730;2023-03-31T08:00:33;11.20;99.90
27848;DHT22;15212;48.830;8.730;2023-03-31T08:03:02;11.30;99.90
27848;DHT22;15212;48.830;8.730;2023-03-31T08:05:30;11.40;99.90
27848;DHT22;15212;48.830;8.730;2023-03-31T08:07:58;11.50;99.90
27848;DHT22;15212;48.830;8.730;2023-03-31T08:10:27;11.60;99.90
27848;DHT22;15212;48.830;8.730;2023-03-31T08:12:56;11.70;99.90
27848;DHT22;15212;48.830;8.730;2023-03-31T08:15:24;11.70;99.90
27848;DHT22;15212;48.830;8.730;2023-03-31T08:17:52;11.60;99.90
27848;DHT22;15212;48.830;8.730;2023-03-31T08:20:21;11.70;99.90
27848;DHT22;15212;48.830;8.730;2023-03-31T08:22:49;11.80;99.90
27848;DHT22;15212;48.830;8.730;2023-03-31T08:25:18;11.70;99.90
27848;DHT22;15212;48.830;8.730;2023-03-31T08:27:46;11.70;99.90
27848;DHT22;15212;48.830;8.730;2023-03-31T08:30:18;11.80;99.90
27848;DHT22;15212;48.830;8.730;2023-03-31T08:32:46;11.80;99.90
27848;DHT22;15212;48.830;8.730;2023-03-31T08:35:15;12.00;99.90
27848;DHT22;15212;48.830;8.730;2023-03-31T08:37:43;12.00;99.90
27848;DHT22;15212;48.830;8.730;2023-03-31T08:40:18;12.10;99.90
27848;DHT22;15212;48.830;8.730;2023-03-31T08:42:52;12.10;99.90
27848;DHT22;15212;48.830;8.730;2023-03-31T08:45:36;12.10;99.90
27848;DHT22;15212;48.830;8.730;2023-03-31T08:48:10;12.10;99.90
27848;DHT22;15212;48.830;8.730;2023-03-31T08:51:19;12.00;99.90
27848;DHT22;15212;48.830;8.730;2023-03-31T08:54:10;12.10;99.90
27848;DHT22;15212;48.830;8.730;2023-03-31T08:56:37;12.10;99.90
27848;DHT22;15212;48.830;8.730;2023-03-31T08:59:16;12.10;99.90
27848;DHT22;15212;48.830;8.730;2023-03-31T09:04:47;11.80;99.90
27848;DHT22;15212;48.830;8.730;2023-03-31T09:10:50;11.50;99.90
27848;DHT22;15212;48.830;8.730;2023-03-31T09:12:45;11.50;99.90
27848;DHT22;15212;48.830;8.730;2023-03-31T09:15:32;11.50;99.90
27848;DHT22;15212;48.830;8.730;2023-03-31T09:18:28;11.50;99.90
27848;DHT22;15212;48.830;8.730;2023-03-31T09:21:34;11.60;99.90
27848;DHT22;15212;48.830;8.730;2023-03-31T09:24:24;11.60;99.90
27848;DHT22;15212;48.830;8.730;2023-03-31T09:27:00;11.70;99.90
27848;DHT22;15212;48.830;8.730;2023-03-31T09:32:17;12.10;99.90
27848;DHT22;15212;48.830;8.730;2023-03-31T09:34:52;12.50;99.90
27848;DHT22;15212;48.830;8.730;2023-03-31T09:37:33;12.40;99.90
27848;DHT22;15212;48.830;8.730;2023-03-31T09:40:03;12.50;99.90
27848;DHT22;15212;48.830;8.730;2023-03-31T09:42:34;12.50;99.90
27848;DHT22;15212;48.830;8.730;2023-03-31T09:45:04;12.60;99.90
27848;DHT22;15212;48.830;8.730;2023-03-31T09:47:40;12.50;99.90
27848;DHT22;15212;48.830;8.730;2023-03-31T09:50:09;12.40;99.90
27848;DHT22;15212;48.830;8.730;2023-03-31T09:52:45;12.20;99.90
27848;DHT22;15212;48.830;8.730;2023-03-31T09:57:52;12.20;99.90
27848;DHT22;15212;48.830;8.730;2023-03-31T10:00:21;12.30;99.90
27848;DHT22;15212;48.830;8.730;2023-03-31T10:02:52;12.30;99.90
27848;DHT22;15212;48.830;8.730;2023-03-31T10:05:30;12.50;99.90
27848;DHT22;15212;48.830;8.730;2023-03-31T10:11:06;12.90;99.90
27848;DHT22;15212;48.830;8.730;2023-03-31T10:13:45;13.00;99.90
27848;DHT22;15212;48.830;8.730;2023-03-31T10:16:33;13.20;99.90
27848;DHT22;15212;48.830;8.730;2023-03-31T10:19:23;13.40;99.90
27848;DHT22;15212;48.830;8.730;2023-03-31T10:22:04;13.50;99.90
27848;DHT22;15212;48.830;8.730;2023-03-31T10:24:40;13.30;99.90
27848;DHT22;15212;48.830;8.730;2023-03-31T10:27:27;13.30;99.90
27848;DHT22;15212;48.830;8.730;2023-03-31T10:30:01;13.30;99.90
27848;DHT22;15212;48.830;8.730;2023-03-31T10:32:32;12.90;99.90
27848;DHT22;15212;48.830;8.730;2023-03-31T10:35:06;12.80;99.90
27848;DHT22;15212;48.830;8.730;2023-03-31T10:37:36;12.70;99.90
27848;DHT22;15212;48.830;8.730;2023-03-31T10:45:59;12.90;99.90
27848;DHT22;15212;48.830;8.730;2023-03-31T10:48:35;12.90;99.90
27848;DHT22;15212;48.830;8.730;2023-03-31T10:51:16;13.00;99.90
27848;DHT22;15212;48.830;8.730;2023-03-31T10:53:51;12.80;99.90
27848;DHT22;15212;48.830;8.730;2023-03-31T10:56:47;12.50;99.90
27848;DHT22;15212;48.830;8.730;2023-03-31T10:59:57;12.10;99.90
27848;DHT22;15212;48.830;8.730;2023-03-31T11:02:42;11.70;99.90
27848;DHT22;15212;48.830;8.730;2023-03-31T11:05:30;10.90;99.90
27848;DHT22;15212;48.830;8.730;2023-03-31T11:20:16;8.40;99.90
27848;DHT22;15212;48.830;8.730;2023-03-31T11:26:04;8.30;99.90
27848;DHT22;15212;48.830;8.730;2023-03-31T11:31:28;8.30;99.90
27848;DHT22;15212;48.830;8.730;2023-03-31T11:34:19;8.30;99.90
27848;DHT22;15212;48.830;8.730;2023-03-31T11:37:58;8.50;99.90
27848;DHT22;15212;48.830;8.730;2023-03-31T11:43:13;8.70;99.90
27848;DHT22;15212;48.830;8.730;2023-03-31T11:46:07;9.00;99.90
27848;DHT22;15212;48.830;8.730;2023-03-31T11:48:47;9.30;99.90
27848;DHT22;15212;48.830;8.730;2023-03-31T11:54:27;9.70;99.90
27848;DHT22;15212;48.830;8.730;2023-03-31T11:57:17;9.90;99.90
27848;DHT22;15212;48.830;8.730;2023-03-31T11:59:51;10.00;99.90
27848;DHT22;15212;48.830;8.730;2023-03-31T12:04:58;10.40;99.90
27848;DHT22;15212;48.830;8.730;2023-03-31T12:10:35;10.80;99.90
27848;DHT22;15212;48.830;8.730;2023-03-31T12:16:05;11.00;99.90
27848;DHT22;15212;48.830;8.730;2023-03-31T12:19:12;11.10;99.90
27848;DHT22;15212;48.830;8.730;2023-03-31T12:21:46;11.10;99.90
27848;DHT22;15212;48.830;8.730;2023-03-31T12:24:17;11.10;99.90
27848;DHT22;15212;48.830;8.730;2023-03-31T12:29:30;11.00;99.90
27848;DHT22;15212;48.830;8.730;2023-03-31T12:32:09;11.10;99.90
27848;DHT22;15212;48.830;8.730;2023-03-31T12:34:53;11.30;99.90
27848;DHT22;15212;48.830;8.730;2023-03-31T12:37:43;11.40;99.90
27848;DHT22;15212;48.830;8.730;2023-03-31T12:40:17;11.70;99.90
27848;DHT22;15212;48.830;8.730;2023-03-31T12:43:07;11.70;99.90
27848;DHT22;15212;48.830;8.730;2023-03-31T12:45:40;11.90;99.90
27848;DHT22;15212;48.830;8.730;2023-03-31T12:48:46;11.90;99.90
27848;DHT22;15212;48.830;8.730;2023-03-31T12:51:40;11.60;99.90
27848;DHT22;15212;48.830;8.730;2023-03-31T12:57:02;10.40;99.90
27848;DHT22;15212;48.830;8.730;2023-03-31T12:59:37;9.90;99.90
27848;DHT22;15212;48.830;8.730;2023-03-31T13:04:43;9.30;99.90
27848;DHT22;15212;48.830;8.730;2023-03-31T13:13:13;8.40;99.90
27848;DHT22;15212;48.830;8.730;2023-03-31T13:15:55;8.40;99.90
27848;DHT22;15212;48.830;8.730;2023-03-31T13:18:25;8.50;99.90
27848;DHT22;15212;48.830;8.730;2023-03-31T13:21:13;8.70;99.90
27848;DHT22;15212;48.830;8.730;2023-03-31T13:23:44;8.80;99.90
27848;DHT22;15212;48.830;8.730;2023-03-31T13:29:21;8.90;99.90
27848;DHT22;15212;48.830;8.730;2023-03-31T13:34:55;8.90;99.90
27848;DHT22;15212;48.830;8.730;2023-03-31T13:49:43;8.90;99.90
27848;DHT22;15212;48.830;8.730;2023-03-31T13:51:49;9.00;99.90
27848;DHT22;15212;48.830;8.730;2023-03-31T13:54:27;9.20;99.90
27848;DHT22;15212;48.830;8.730;2023-03-31T14:00:29;9.60;99.90
27848;DHT22;15212;48.830;8.730;2023-03-31T14:06:17;10.10;99.90
27848;DHT22;15212;48.830;8.730;2023-03-31T14:09:02;10.40;99.90
27848;DHT22;15212;48.830;8.730;2023-03-31T14:11:29;10.60;99.90
27848;DHT22;15212;48.830;8.730;2023-03-31T14:14:06;10.70;99.90
27848;DHT22;15212;48.830;8.730;2023-03-31T14:16:51;10.90;99.90
27848;DHT22;15212;48.830;8.730;2023-03-31T14:28:42;11.20;99.90
27848;DHT22;15212;48.830;8.730;2023-03-31T14:31:37;11.40;99.90
27848;DHT22;15212;48.830;8.730;2023-03-31T14:34:33;11.50;99.90
27848;DHT22;15212;48.830;8.730;2023-03-31T14:37:15;11.60;99.90
27848;DHT22;15212;48.830;8.730;2023-03-31T14:39:50;11.70;99.90
27848;DHT22;15212;48.830;8.730;2023-03-31T14:42:25;11.60;99.90
27848;DHT22;15212;48.830;8.730;2023-03-31T14:44:56;11.60;99.90
27848;DHT22;15212;48.830;8.730;2023-03-31T14:47:27;11.60;99.90
27848;DHT22;15212;48.830;8.730;2023-03-31T14:50:14;11.60;99.90
27848;DHT22;15212;48.830;8.730;2023-03-31T14:52:48;11.80;99.90
27848;DHT22;15212;48.830;8.730;2023-03-31T14:55:21;11.80;99.90
27848;DHT22;15212;48.830;8.730;2023-03-31T14:57:50;12.00;99.90
27848;DHT22;15212;48.830;8.730;2023-03-31T15:00:24;12.00;99.90
27848;DHT22;15212;48.830;8.730;2023-03-31T15:03:01;12.10;99.90
27848;DHT22;15212;48.830;8.730;2023-03-31T15:05:35;12.20;99.90
27848;DHT22;15212;48.830;8.730;2023-03-31T15:08:15;12.30;99.90
27848;DHT22;15212;48.830;8.730;2023-03-31T15:10:42;12.50;99.90
27848;DHT22;15212;48.830;8.730;2023-03-31T15:13:18;12.50;99.90
27848;DHT22;15212;48.830;8.730;2023-03-31T15:15:58;12.50;99.90
27848;DHT22;15212;48.830;8.730;2023-03-31T15:18:27;12.40;99.90
27848;DHT22;15212;48.830;8.730;2023-03-31T15:20:56;12.50;99.90
27848;DHT22;15212;48.830;8.730;2023-03-31T15:23:26;12.40;99.90
27848;DHT22;15212;48.830;8.730;2023-03-31T15:25:57;12.30;99.90
27848;DHT22;15212;48.830;8.730;2023-03-31T15:28:36;12.20;99.90
27848;DHT22;15212;48.830;8.730;2023-03-31T15:31:00;12.10;99.90
27848;DHT22;15212;48.830;8.730;2023-03-31T15:33:31;11.90;99.90
27848;DHT22;15212;48.830;8.730;2023-03-31T15:36:02;11.80;99.90
27848;DHT22;15212;48.830;8.730;2023-03-31T15:38:31;11.70;99.90
27848;DHT22;15212;48.830;8.730;2023-03-31T15:41:00;11.70;99.90
27848;DHT22;15212;48.830;8.730;2023-03-31T15:43:30;11.70;99.90
27848;DHT22;15212;48.830;8.730;2023-03-31T15:46:01;11.60;99.90
27848;DHT22;15212;48.830;8.730;2023-03-31T15:48:35;11.50;99.90
27848;DHT22;15212;48.830;8.730;2023-03-31T15:51:30;11.40;99.90
27848;DHT22;15212;48.830;8.730;2023-03-31T15:53:54;11.30;99.90
27848;DHT22;15212;48.830;8.730;2023-03-31T15:56:34;11.20;99.90
27848;DHT22;15212;48.830;8.730;2023-03-31T15:59:21;11.20;99.90
27848;DHT22;15212;48.830;8.730;2023-03-31T16:01:51;10.90;99.90
27848;DHT22;15212;48.830;8.730;2023-03-31T16:04:22;10.80;99.90
27848;DHT22;15212;48.830;8.730;2023-03-31T16:06:57;10.70;99.90
27848;DHT22;15212;48.830;8.730;2023-03-31T16:12:22;10.50;99.90
27848;DHT22;15212;48.830;8.730;2023-03-31T16:14:57;10.30;99.90
27848;DHT22;15212;48.830;8.730;2023-03-31T16:17:41;10.10;99.90
27848;DHT22;15212;48.830;8.730;2023-03-31T16:20:26;9.90;99.90
27848;DHT22;15212;48.830;8.730;2023-03-31T16:22:57;9.60;99.90
27848;DHT22;15212;48.830;8.730;2023-03-31T16:25:28;9.50;99.90
27848;DHT22;15212;48.830;8.730;2023-03-31T16:28:00;9.40;99.90
27848;DHT22;15212;48.830;8.730;2023-03-31T16:30:37;9.30;99.90
27848;DHT22;15212;48.830;8.730;2023-03-31T16:33:13;9.30;99.90
27848;DHT22;15212;48.830;8.730;2023-03-31T16:35:48;9.30;99.90
27848;DHT22;15212;48.830;8.730;2023-03-31T16:38:20;9.20;99.90
27848;DHT22;15212;48.830;8.730;2023-03-31T16:40:54;9.20;99.90
27848;DHT22;15212;48.830;8.730;2023-03-31T16:43:25;9.20;99.90
27848;DHT22;15212;48.830;8.730;2023-03-31T16:45:56;9.20;99.90
27848;DHT22;15212;48.830;8.730;2023-03-31T16:48:28;9.20;99.90
27848;DHT22;15212;48.830;8.730;2023-03-31T16:50:59;9.20;99.90
27848;DHT22;15212;48.830;8.730;2023-03-31T16:53:34;9.20;99.90
27848;DHT22;15212;48.830;8.730;2023-03-31T16:56:00;9.20;99.90
27848;DHT22;15212;48.830;8.730;2023-03-31T16:58:29;9.20;99.90
27848;DHT22;15212;48.830;8.730;2023-03-31T17:00:58;9.30;99.90
27848;DHT22;15212;48.830;8.730;2023-03-31T17:03:27;9.30;99.90
27848;DHT22;15212;48.830;8.730;2023-03-31T17:05:56;9.30;99.90
27848;DHT22;15212;48.830;8.730;2023-03-31T17:08:26;9.30;99.90
27848;DHT22;15212;48.830;8.730;2023-03-31T17:11:00;9.30;99.90
27848;DHT22;15212;48.830;8.730;2023-03-31T17:13:30;9.20;99.90
27848;DHT22;15212;48.830;8.730;2023-03-31T17:15:59;9.20;99.90
27848;DHT22;15212;48.830;8.730;2023-03-31T17:18:28;9.20;99.90
27848;DHT22;15212;48.830;8.730;2023-03-31T17:21:05;9.20;99.90
27848;DHT22;15212;48.830;8.730;2023-03-31T17:23:40;9.10;99.90
27848;DHT22;15212;48.830;8.730;2023-03-31T17:26:09;9.10;99.90
27848;DHT22;15212;48.830;8.730;2023-03-31T17:28:41;9.10;99.90
27848;DHT22;15212;48.830;8.730;2023-03-31T17:31:11;9.10;99.90
27848;DHT22;15212;48.830;8.730;2023-03-31T17:33:41;9.00;99.90
27848;DHT22;15212;48.830;8.730;2023-03-31T17:36:10;9.00;99.90
27848;DHT22;15212;48.830;8.730;2023-03-31T17:38:39;8.90;99.90
27848;DHT22;15212;48.830;8.730;2023-03-31T17:41:09;8.70;99.90
27848;DHT22;15212;48.830;8.730;2023-03-31T17:43:42;8.40;99.90
27848;DHT22;15212;48.830;8.730;2023-03-31T17:46:13;8.20;99.90
27848;DHT22;15212;48.830;8.730;2023-03-31T17:48:42;8.20;99.90
27848;DHT22;15212;48.830;8.730;2023-03-31T17:51:13;8.10;99.90
27848;DHT22;15212;48.830;8.730;2023-03-31T17:53:44;8.00;99.90
27848;DHT22;15212;48.830;8.730;2023-03-31T17:56:13;8.00;99.90
27848;DHT22;15212;48.830;8.730;2023-03-31T17:58:43;7.90;99.90
27848;DHT22;15212;48.830;8.730;2023-03-31T18:01:13;7.90;99.90
27848;DHT22;15212;48.830;8.730;2023-03-31T18:03:41;7.80;99.90
27848;DHT22;15212;48.830;8.730;2023-03-31T18:06:13;7.80;99.90
27848;DHT22;15212;48.830;8.730;2023-03-31T18:08:43;7.80;99.90
27848;DHT22;15212;48.830;8.730;2023-03-31T18:11:11;7.80;99.90
27848;DHT22;15212;48.830;8.730;2023-03-31T18:13:41;7.70;99.90
27848;DHT22;15212;48.830;8.730;2023-03-31T18:16:09;7.70;99.90
27848;DHT22;15212;48.830;8.730;2023-03-31T18:18:38;7.70;99.90
27848;DHT22;15212;48.830;8.730;2023-03-31T18:21:10;7.70;99.90
27848;DHT22;15212;48.830;8.730;2023-03-31T18:23:40;7.70;99.90
27848;DHT22;15212;48.830;8.730;2023-03-31T18:26:10;7.70;99.90
27848;DHT22;15212;48.830;8.730;2023-03-31T18:28:39;7.80;99.90
27848;DHT22;15212;48.830;8.730;2023-03-31T18:31:09;7.80;99.90